首页
METAR-TAF:

METAR-TAF

机场 :

拉多姆, 波兰

纬度: 51-23-21N, 经度: 21-12-49E, 海拔: 186米

METAR: 丢失

时间: 04:21 (03:21 UTC)

预报

该预报发布于7小时和21分钟前的20:00 UTC
预报有效从25日的 21点(UTC)到 26日的 06点(UTC)
风速6节,风向西转西南
能見度: 8000
成为
从 26日的 00点(UTC)到 26日的 02点(UTC)
能見度: 5000
轻雾
短暂存在
从 26日的 02点(UTC)到 26日的 06点(UTC)
能見度: 2000
轻雾
几率 30%
从 26日的 02点(UTC)到 26日的 05点(UTC)
能見度: 0800
成为
从 26日的 04点(UTC)到 26日的 06点(UTC)
多云层高于1400英尺

TAF: EPRA 252000Z 2521/2606 24006KT 8000 NSC BECMG 2600/2602 5000 BR TEMPO 2602/2606 2000 BR PROB30 2602/2605 0800 FG BECMG 2604/2606 BKN014

超过4000个机场的气象观测和天气预报(METAR&TAF报告)。

可查询的气象台以黄色和红色小点在地图上表示。

将鼠标移到小点上方,可查看气象台名称。

然后点击查看天气观测和预报。

如需切换地图:点击带黑十字的绿色按钮放大地图;点击带横线的绿色按钮缩小地图;或者点击绿色箭头查看邻近地区的地图。


METAR-TAF: